createdAt,value
2023-02-04T00:01:24.543Z,26.10
2023-02-04T00:03:53.327Z,28.13
2023-02-04T00:06:21.751Z,27.37
2023-02-04T00:08:50.133Z,24.50
2023-02-04T00:11:18.765Z,27.90
2023-02-04T00:13:48.611Z,19.30
2023-02-04T00:16:17.029Z,25.47
2023-02-04T00:18:45.464Z,25.77
2023-02-04T00:21:13.850Z,19.60
2023-02-04T00:23:43.128Z,21.70
2023-02-04T00:26:11.458Z,21.03
2023-02-04T00:28:40.681Z,17.90
2023-02-04T00:31:10.441Z,19.67
2023-02-04T00:33:38.813Z,23.50
2023-02-04T00:36:07.503Z,24.40
2023-02-04T00:38:35.914Z,17.20
2023-02-04T00:41:04.286Z,26.17
2023-02-04T00:43:32.781Z,22.60
2023-02-04T00:46:01.272Z,16.63
2023-02-04T00:48:31.033Z,28.73
2023-02-04T00:50:59.360Z,25.80
2023-02-04T00:53:27.721Z,23.00
2023-02-04T00:55:56.188Z,26.53
2023-02-04T00:58:24.598Z,30.43
2023-02-04T01:00:53.068Z,18.90
2023-02-04T01:03:21.428Z,23.80
2023-02-04T01:05:51.260Z,21.03
2023-02-04T01:08:19.677Z,21.30
2023-02-04T01:10:48.376Z,18.40
2023-02-04T01:13:16.778Z,27.47
2023-02-04T01:15:45.363Z,18.70
2023-02-04T01:18:14.477Z,19.40
2023-02-04T01:20:42.844Z,19.47
2023-02-04T01:23:12.752Z,19.47
2023-02-04T01:25:41.117Z,19.20
2023-02-04T01:28:09.982Z,17.07
2023-02-04T01:30:38.354Z,19.53
2023-02-04T01:33:06.859Z,26.63
2023-02-04T01:35:35.393Z,19.10
2023-02-04T01:38:03.717Z,25.17
2023-02-04T01:40:33.543Z,27.73
2023-02-04T01:43:01.985Z,28.97
2023-02-04T01:45:33.939Z,24.20
2023-02-04T01:48:02.490Z,25.50
2023-02-04T01:50:31.139Z,22.70
2023-02-04T01:52:59.761Z,24.00
2023-02-04T01:55:29.084Z,22.00
2023-02-04T01:57:59.227Z,22.73
2023-02-04T02:00:28.371Z,19.03
2023-02-04T02:02:57.124Z,26.97
2023-02-04T02:05:26.158Z,19.70
2023-02-04T02:07:55.174Z,25.53
2023-02-04T02:10:23.701Z,22.13
2023-02-04T02:12:52.133Z,26.03
2023-02-04T02:15:22.156Z,30.27
2023-02-04T02:17:50.588Z,22.27
2023-02-04T02:20:19.619Z,29.83
2023-02-04T02:22:51.634Z,23.67
2023-02-04T02:25:21.529Z,19.77
2023-02-04T02:27:49.941Z,28.37
2023-02-04T02:30:19.917Z,20.97
2023-02-04T02:32:48.479Z,25.67
2023-02-04T02:35:17.042Z,23.27
2023-02-04T02:37:45.554Z,20.93
2023-02-04T02:40:14.437Z,22.37
2023-02-04T02:42:44.295Z,21.83
2023-02-04T02:45:13.920Z,24.03
2023-02-04T02:47:42.634Z,22.43
2023-02-04T02:50:11.344Z,24.37
2023-02-04T02:52:39.692Z,28.03
2023-02-04T02:55:09.679Z,26.20
2023-02-04T02:57:38.010Z,29.17
2023-02-04T03:00:15.026Z,24.80
2023-02-04T03:02:43.480Z,21.57
2023-02-04T03:05:12.151Z,25.60
2023-02-04T03:07:40.536Z,26.50
2023-02-04T03:10:08.974Z,28.57
2023-02-04T03:12:37.473Z,22.97
2023-02-04T03:15:06.081Z,21.87
2023-02-04T03:17:35.939Z,25.60
2023-02-04T03:20:04.353Z,22.30
2023-02-04T03:22:32.690Z,22.53
2023-02-04T03:25:01.190Z,35.03
2023-02-04T03:27:30.023Z,28.43
2023-02-04T03:29:58.323Z,24.40
2023-02-04T03:32:26.928Z,25.97
2023-02-04T03:34:57.018Z,28.30
2023-02-04T03:37:25.473Z,26.60
2023-02-04T03:39:53.885Z,29.60
2023-02-04T03:42:22.435Z,18.53
2023-02-04T03:44:51.108Z,33.53
2023-02-04T03:47:19.601Z,21.47
2023-02-04T03:49:47.990Z,29.73
2023-02-04T03:52:17.843Z,27.83
2023-02-04T03:54:46.288Z,26.07
2023-02-04T03:57:15.951Z,28.27
2023-02-04T03:59:44.335Z,23.73
2023-02-04T04:02:12.760Z,23.70
2023-02-04T04:04:41.285Z,20.97
2023-02-04T04:07:09.671Z,29.70
2023-02-04T04:09:42.211Z,23.70
2023-02-04T04:12:10.694Z,26.57
2023-02-04T04:14:39.089Z,28.97
2023-02-04T04:17:07.463Z,24.93
2023-02-04T04:19:36.093Z,30.53
2023-02-04T04:22:04.436Z,26.70
2023-02-04T04:24:33.646Z,26.87
2023-02-04T04:27:03.420Z,20.47
2023-02-04T04:29:31.757Z,25.27
2023-02-04T04:32:00.167Z,25.37
2023-02-04T04:34:28.517Z,25.40
2023-02-04T04:36:56.946Z,26.97
2023-02-04T04:39:26.373Z,22.83
2023-02-04T04:41:54.720Z,32.07
2023-02-04T04:44:24.516Z,23.67
2023-02-04T04:46:52.849Z,23.17
2023-02-04T04:49:21.357Z,21.50
2023-02-04T04:51:49.717Z,26.97
2023-02-04T04:54:18.176Z,26.80
2023-02-04T04:56:46.570Z,30.00
2023-02-04T04:59:15.283Z,31.60
2023-02-04T05:01:45.061Z,34.87
2023-02-04T05:04:13.673Z,25.77
2023-02-04T05:06:42.102Z,26.13
2023-02-04T05:09:10.740Z,30.07
2023-02-04T05:11:39.130Z,28.57
2023-02-04T05:14:07.668Z,31.70
2023-02-04T05:16:36.098Z,28.97
2023-02-04T05:19:05.887Z,24.60
2023-02-04T05:21:34.197Z,22.93
2023-02-04T05:24:02.626Z,24.73
2023-02-04T05:26:31.479Z,32.57
2023-02-04T05:29:01.077Z,28.03
2023-02-04T05:31:29.575Z,26.97
2023-02-04T05:33:58.080Z,32.80
2023-02-04T05:36:27.871Z,31.13
2023-02-04T05:38:56.281Z,31.70
2023-02-04T05:41:24.744Z,28.23
2023-02-04T05:43:53.214Z,29.63
2023-02-04T05:46:21.668Z,34.43
2023-02-04T05:48:50.190Z,28.03
2023-02-04T05:51:18.728Z,31.17
2023-02-04T05:53:48.686Z,40.40
2023-02-04T05:56:17.070Z,33.17
2023-02-04T05:58:45.488Z,34.17
2023-02-04T06:01:14.037Z,33.40
2023-02-04T06:03:42.448Z,39.60
2023-02-04T06:06:10.954Z,29.37
2023-02-04T06:08:39.490Z,26.23
2023-02-04T06:11:09.302Z,30.03
2023-02-04T06:13:37.889Z,31.00
2023-02-04T06:16:06.725Z,36.80
2023-02-04T06:18:35.461Z,31.97
2023-02-04T06:21:04.810Z,26.47
2023-02-04T06:23:34.432Z,43.00
2023-02-04T06:26:03.008Z,28.40
2023-02-04T06:28:32.755Z,29.70
2023-02-04T06:31:01.448Z,35.47
2023-02-04T06:33:30.141Z,39.20
2023-02-04T06:35:58.591Z,34.03
2023-02-04T06:38:27.123Z,39.77
2023-02-04T06:40:55.604Z,28.37
2023-02-04T06:43:25.547Z,31.63
2023-02-04T06:45:55.480Z,28.63
2023-02-04T06:48:23.948Z,32.07
2023-02-04T06:50:52.557Z,31.33
2023-02-04T06:53:20.940Z,32.23
2023-02-04T06:55:49.514Z,30.67
2023-02-04T06:58:17.963Z,35.83
2023-02-04T07:00:46.506Z,34.27
2023-02-04T07:03:16.389Z,30.53
2023-02-04T07:05:44.819Z,29.00
2023-02-04T07:08:13.456Z,25.93
2023-02-04T07:10:41.942Z,30.80
2023-02-04T07:13:10.494Z,34.50
2023-02-04T07:15:38.955Z,35.33
2023-02-04T07:18:07.591Z,26.90
2023-02-04T07:20:37.394Z,32.43
2023-02-04T07:23:06.237Z,25.40
2023-02-04T07:25:34.620Z,26.00
2023-02-04T07:28:05.498Z,31.83
2023-02-04T07:30:34.921Z,29.97
2023-02-04T07:33:03.586Z,26.17
2023-02-04T07:35:32.050Z,29.53
2023-02-04T07:38:01.848Z,26.47
2023-02-04T07:40:30.764Z,18.23
2023-02-04T07:42:59.491Z,26.50
2023-02-04T07:45:27.976Z,30.97
2023-02-04T07:47:56.676Z,31.03
2023-02-04T07:50:25.097Z,31.83
2023-02-04T07:52:53.552Z,34.80
2023-02-04T07:55:23.445Z,29.47
2023-02-04T07:57:51.958Z,37.00
2023-02-04T08:00:20.979Z,28.47
2023-02-04T08:02:49.418Z,29.87
2023-02-04T08:05:18.100Z,33.87
2023-02-04T08:07:46.621Z,34.00
2023-02-04T08:10:15.110Z,31.47
2023-02-04T08:12:44.894Z,30.63
2023-02-04T08:15:13.578Z,27.03
2023-02-04T08:17:43.137Z,35.60
2023-02-04T08:20:12.547Z,32.93
2023-02-04T08:22:41.148Z,32.77
2023-02-04T08:25:10.244Z,28.27
2023-02-04T08:27:38.634Z,33.87
2023-02-04T08:30:09.077Z,32.47
2023-02-04T08:32:37.495Z,40.60
2023-02-04T08:35:06.569Z,31.90
2023-02-04T08:37:35.090Z,29.00
2023-02-04T08:40:03.486Z,44.20
2023-02-04T08:42:32.154Z,29.87
2023-02-04T08:45:00.625Z,31.83
2023-02-04T08:47:30.548Z,37.37
2023-02-04T08:49:58.894Z,35.03
2023-02-04T08:52:27.278Z,31.23
2023-02-04T08:54:55.647Z,37.87
2023-02-04T08:57:24.083Z,41.40
2023-02-04T08:59:52.474Z,36.10
2023-02-04T09:02:20.981Z,30.93
2023-02-04T09:04:51.095Z,44.57
2023-02-04T09:07:20.087Z,33.73
2023-02-04T09:09:48.492Z,33.53
2023-02-04T09:12:16.948Z,34.27
2023-02-04T09:14:45.906Z,32.40
2023-02-04T09:17:14.246Z,30.23
2023-02-04T09:19:42.629Z,31.17
2023-02-04T09:22:13.314Z,32.23
2023-02-04T09:24:41.734Z,33.20
2023-02-04T09:27:10.725Z,33.67
2023-02-04T09:29:39.451Z,35.93
2023-02-04T09:32:08.315Z,30.90
2023-02-04T09:34:36.666Z,31.73
2023-02-04T09:37:05.205Z,39.63
2023-02-04T09:39:35.275Z,38.97
2023-02-04T09:42:03.680Z,37.17
2023-02-04T09:44:32.115Z,36.43
2023-02-04T09:47:01.354Z,33.73
2023-02-04T09:49:29.819Z,31.07
2023-02-04T09:51:58.386Z,30.93
2023-02-04T09:54:26.976Z,31.17
2023-02-04T09:56:57.620Z,26.90
2023-02-04T09:59:28.531Z,30.70
2023-02-04T10:01:57.583Z,33.63
2023-02-04T10:04:26.049Z,34.23
2023-02-04T10:06:54.476Z,21.00
2023-02-04T10:09:22.960Z,25.17
2023-02-04T10:11:51.553Z,25.17
2023-02-04T10:14:22.193Z,18.30
2023-02-04T10:16:51.184Z,19.80
2023-02-04T10:19:19.689Z,24.13
2023-02-04T10:21:49.311Z,22.10
2023-02-04T10:24:18.223Z,15.73
2023-02-04T10:26:46.869Z,18.90
2023-02-04T10:29:16.059Z,13.43
2023-02-04T10:31:46.663Z,17.53
2023-02-04T10:34:18.178Z,15.27
2023-02-04T10:36:47.810Z,14.03
2023-02-04T10:39:16.837Z,16.73
2023-02-04T10:41:49.916Z,11.40
2023-02-04T10:44:18.888Z,15.97
2023-02-04T10:46:48.678Z,15.10
2023-02-04T10:49:18.771Z,13.47
2023-02-04T10:51:47.363Z,13.83
2023-02-04T10:54:31.185Z,20.13
2023-02-04T10:57:00.590Z,17.33
2023-02-04T10:59:29.262Z,15.43
2023-02-04T11:01:59.487Z,18.37
2023-02-04T11:04:28.848Z,22.90
2023-02-04T11:06:57.508Z,20.83
2023-02-04T11:09:25.873Z,17.93
2023-02-04T11:11:54.325Z,21.57
2023-02-04T11:14:28.333Z,17.30
2023-02-04T11:17:00.718Z,21.57
2023-02-04T11:19:34.793Z,21.80
2023-02-04T11:22:07.311Z,26.97
2023-02-04T11:24:36.051Z,23.47
2023-02-04T11:27:09.079Z,17.93
2023-02-04T11:29:39.070Z,21.23
2023-02-04T11:32:08.146Z,18.73
2023-02-04T11:34:51.282Z,18.17
2023-02-04T11:37:34.556Z,21.73
2023-02-04T11:40:02.931Z,17.80
2023-02-04T11:42:33.388Z,14.50
2023-02-04T11:45:02.371Z,17.23
2023-02-04T11:47:35.839Z,24.37
2023-02-04T11:50:06.326Z,15.47
2023-02-04T11:52:36.955Z,19.33
2023-02-04T11:55:05.328Z,20.17
2023-02-04T11:57:39.540Z,24.33
2023-02-04T12:00:08.405Z,11.93
2023-02-04T12:02:43.258Z,20.73
2023-02-04T12:05:13.763Z,18.37
2023-02-04T12:07:42.122Z,20.57
2023-02-04T12:10:16.254Z,23.07
2023-02-04T12:12:45.120Z,25.57
2023-02-04T12:15:17.026Z,29.17
2023-02-04T12:17:46.848Z,21.17
2023-02-04T12:20:16.737Z,11.90
2023-02-04T12:22:45.192Z,17.70
2023-02-04T12:25:16.935Z,18.43
2023-02-04T12:27:45.450Z,16.87
2023-02-04T12:30:14.434Z,19.60
2023-02-04T12:32:42.861Z,17.37
2023-02-04T12:35:11.338Z,22.83
2023-02-04T12:37:41.152Z,20.17
2023-02-04T12:40:10.417Z,20.00
2023-02-04T12:42:38.840Z,17.17
2023-02-04T12:45:07.368Z,17.33
2023-02-04T12:47:35.780Z,23.50
2023-02-04T12:50:04.117Z,15.53
2023-02-04T12:52:32.801Z,17.53
2023-02-04T12:55:05.132Z,14.63
2023-02-04T12:57:33.686Z,14.50
2023-02-04T13:00:02.144Z,21.40
2023-02-04T13:02:31.170Z,18.13
2023-02-04T13:04:59.554Z,20.50
2023-02-04T13:07:28.129Z,22.23
2023-02-04T13:09:57.415Z,19.33
2023-02-04T13:12:27.272Z,19.37
2023-02-04T13:14:55.812Z,22.03
2023-02-04T13:17:24.240Z,24.17
2023-02-04T13:19:52.780Z,23.00
2023-02-04T13:22:21.339Z,21.23
2023-02-04T13:24:49.943Z,20.43
2023-02-04T13:27:18.381Z,24.97
2023-02-04T13:29:48.232Z,20.23
2023-02-04T13:32:16.589Z,28.03
2023-02-04T13:34:45.071Z,24.23
2023-02-04T13:37:13.477Z,25.53
2023-02-04T13:43:04.241Z,19.27
2023-02-04T13:45:34.403Z,24.53
2023-02-04T13:48:02.894Z,22.97
2023-02-04T13:50:31.524Z,25.00
2023-02-04T13:53:00.021Z,30.07
2023-02-04T13:55:28.340Z,25.83
2023-02-04T13:57:56.682Z,34.97
2023-02-04T14:00:25.115Z,26.77
2023-02-04T14:02:56.399Z,35.17
2023-02-04T14:05:24.845Z,28.90
2023-02-04T14:07:53.180Z,37.17
2023-02-04T14:10:24.844Z,27.63
2023-02-04T14:12:53.257Z,31.37
2023-02-04T14:15:21.647Z,28.40
2023-02-04T14:17:49.931Z,33.30
2023-02-04T14:20:19.943Z,25.53
2023-02-04T14:22:48.412Z,27.67
2023-02-04T14:25:16.909Z,31.13
2023-02-04T14:27:45.375Z,27.03
2023-02-04T14:30:17.591Z,30.93
2023-02-04T14:32:45.899Z,27.17
2023-02-04T14:35:14.302Z,34.83
2023-02-04T14:37:44.030Z,31.90
2023-02-04T14:40:13.070Z,31.10
2023-02-04T14:42:41.491Z,32.37
2023-02-04T14:45:10.204Z,35.97
2023-02-04T14:47:38.722Z,27.73
2023-02-04T14:50:07.539Z,31.50
2023-02-04T14:52:35.969Z,32.93
2023-02-04T14:55:05.938Z,25.57
2023-02-04T14:57:34.325Z,36.90
2023-02-04T15:00:02.628Z,28.93
2023-02-04T15:02:31.147Z,33.43
2023-02-04T15:04:59.505Z,33.00
2023-02-04T15:07:28.037Z,30.93
2023-02-04T15:09:56.431Z,35.50
2023-02-04T15:12:26.263Z,31.30
2023-02-04T15:14:54.768Z,28.00
2023-02-04T15:17:23.095Z,34.57
2023-02-04T15:19:51.582Z,33.23
2023-02-04T15:22:20.907Z,31.23
2023-02-04T15:24:49.432Z,36.27
2023-02-04T15:27:17.850Z,27.60
2023-02-04T15:29:47.584Z,30.37
2023-02-04T15:32:16.028Z,33.20
2023-02-04T15:34:44.379Z,33.50
2023-02-04T15:37:13.554Z,29.63
2023-02-04T15:39:43.598Z,24.87
2023-02-04T15:42:11.901Z,31.00
2023-02-04T15:44:40.291Z,31.43
2023-02-04T15:47:10.042Z,28.87
2023-02-04T15:49:38.810Z,26.63
2023-02-04T15:52:13.457Z,29.77
2023-02-04T15:54:44.786Z,27.23
2023-02-04T15:57:13.082Z,24.10
2023-02-04T15:59:41.585Z,28.43
2023-02-04T16:02:12.674Z,26.37
2023-02-04T16:04:41.656Z,26.50
2023-02-04T16:07:10.059Z,32.70
2023-02-04T16:09:38.534Z,24.87
2023-02-04T16:12:07.149Z,25.83
2023-02-04T16:14:35.475Z,28.77
2023-02-04T16:17:03.862Z,29.40
2023-02-04T16:19:33.539Z,27.87
2023-02-04T16:22:02.194Z,29.10
2023-02-04T16:24:30.516Z,27.57
2023-02-04T16:26:58.980Z,28.33
2023-02-04T16:29:27.669Z,30.93
2023-02-04T16:31:57.959Z,28.30
2023-02-04T16:34:26.707Z,30.77
2023-02-04T16:36:56.521Z,28.03
2023-02-04T16:39:24.863Z,29.07
2023-02-04T16:41:53.331Z,24.13
2023-02-04T16:44:21.699Z,25.37
2023-02-04T16:46:50.876Z,23.23
2023-02-04T16:49:20.364Z,20.63
2023-02-04T16:51:48.664Z,23.90
2023-02-04T16:54:18.828Z,21.47
2023-02-04T16:56:47.474Z,21.87
2023-02-04T16:59:15.927Z,22.87
2023-02-04T17:01:44.453Z,20.27
2023-02-04T17:04:13.655Z,17.30
2023-02-04T17:06:42.013Z,16.03
2023-02-04T17:09:10.415Z,17.10
2023-02-04T17:11:40.200Z,16.40
2023-02-04T17:14:09.397Z,16.93
2023-02-04T17:16:37.918Z,18.50
2023-02-04T17:19:06.585Z,18.87
2023-02-04T17:21:35.190Z,22.50
2023-02-04T17:24:04.795Z,20.57
2023-02-04T17:26:37.304Z,21.40
2023-02-04T17:29:07.673Z,23.30
2023-02-04T17:31:36.476Z,23.10
2023-02-04T17:34:04.906Z,23.03
2023-02-04T17:36:33.381Z,22.00
2023-02-04T17:39:02.007Z,21.90
2023-02-04T17:41:31.039Z,24.60
2023-02-04T17:44:00.081Z,22.87
2023-02-04T17:46:30.103Z,23.40
2023-02-04T17:48:59.396Z,26.07
2023-02-04T17:51:27.865Z,27.37
2023-02-04T17:53:56.170Z,25.17
2023-02-04T17:56:24.563Z,26.83
2023-02-04T17:58:53.187Z,29.67
2023-02-04T18:01:25.392Z,25.33
2023-02-04T18:03:55.741Z,24.20
2023-02-04T18:06:27.279Z,27.50
2023-02-04T18:09:01.282Z,25.67
2023-02-04T18:11:31.790Z,30.50
2023-02-04T18:14:02.044Z,27.77
2023-02-04T18:16:31.372Z,28.50
2023-02-04T18:19:01.369Z,26.77
2023-02-04T18:21:30.208Z,29.07
2023-02-04T18:24:02.117Z,29.80
2023-02-04T18:26:30.440Z,28.13
2023-02-04T18:28:59.367Z,29.07
2023-02-04T18:31:31.157Z,29.00
2023-02-04T18:34:00.996Z,31.90
2023-02-04T18:36:29.405Z,28.30
2023-02-04T18:38:57.841Z,26.03
2023-02-04T18:41:31.434Z,27.87
2023-02-04T18:44:02.601Z,25.73
2023-02-04T18:46:31.900Z,27.67
2023-02-04T18:49:09.522Z,27.57
2023-02-04T18:51:41.137Z,27.77
2023-02-04T18:54:28.926Z,27.53
2023-02-04T18:57:01.849Z,26.13
2023-02-04T18:59:30.286Z,28.40
2023-02-04T19:01:58.666Z,31.37
2023-02-04T19:04:27.144Z,30.97
2023-02-04T19:06:57.311Z,33.30
2023-02-04T19:09:26.134Z,30.30
2023-02-04T19:11:54.694Z,28.97
2023-02-04T19:14:24.102Z,33.00
2023-02-04T19:16:53.401Z,30.83
2023-02-04T19:19:42.623Z,32.60
2023-02-04T19:22:16.712Z,32.60
2023-02-04T19:24:45.028Z,30.40
2023-02-04T19:27:24.617Z,34.20
2023-02-04T19:29:52.989Z,32.23
2023-02-04T19:32:31.081Z,31.80
2023-02-04T19:35:00.001Z,33.90
2023-02-04T19:37:30.592Z,30.47
2023-02-04T19:39:59.151Z,32.67
2023-02-04T19:42:31.720Z,31.67
2023-02-04T19:45:00.368Z,31.33
2023-02-04T19:47:29.551Z,27.53
2023-02-04T19:50:02.316Z,29.67
2023-02-04T19:52:34.783Z,36.10
2023-02-04T19:55:24.664Z,29.07
2023-02-04T19:57:54.072Z,25.03
2023-02-04T20:00:30.055Z,28.50
2023-02-04T20:02:58.889Z,26.47
2023-02-04T20:05:29.273Z,29.30
2023-02-04T20:07:59.003Z,29.70
2023-02-04T20:10:27.782Z,30.27
2023-02-04T20:12:56.459Z,33.97
2023-02-04T20:15:24.913Z,30.03
2023-02-04T20:17:53.731Z,32.00
2023-02-04T20:20:26.235Z,27.73
2023-02-04T20:22:55.431Z,27.03
2023-02-04T20:25:34.858Z,25.93
2023-02-04T20:28:04.853Z,31.07
2023-02-04T20:30:33.298Z,30.90
2023-02-04T20:33:02.558Z,26.57
2023-02-04T20:35:49.904Z,29.53
2023-02-04T20:38:18.798Z,29.90
2023-02-04T20:40:49.132Z,29.47
2023-02-04T20:43:19.453Z,34.43
2023-02-04T20:45:49.041Z,31.57
2023-02-04T20:48:29.224Z,31.03
2023-02-04T20:50:58.638Z,29.93
2023-02-04T20:53:28.428Z,29.87
2023-02-04T20:56:03.889Z,31.30
2023-02-04T20:58:37.798Z,27.17
2023-02-04T21:01:09.127Z,33.17
2023-02-04T21:03:37.997Z,29.97
2023-02-04T21:06:17.116Z,31.80
2023-02-04T21:08:46.120Z,31.97
2023-02-04T21:11:15.969Z,30.00
2023-02-04T21:13:44.385Z,29.60
2023-02-04T21:16:12.899Z,28.17
2023-02-04T21:18:46.305Z,30.83
2023-02-04T21:21:15.045Z,31.10
2023-02-04T21:23:43.561Z,33.43
2023-02-04T21:26:11.912Z,34.57
2023-02-04T21:28:41.772Z,31.10
2023-02-04T21:31:11.636Z,32.27
2023-02-04T21:33:40.323Z,31.17
2023-02-04T21:36:09.454Z,34.63
2023-02-04T21:38:38.174Z,30.90
2023-02-04T21:41:06.750Z,30.13
2023-02-04T21:43:35.242Z,33.83
2023-02-04T21:46:05.223Z,35.37
2023-02-04T21:48:33.711Z,31.33
2023-02-04T21:51:02.128Z,33.17
2023-02-04T21:53:31.845Z,32.23
2023-02-04T21:56:00.492Z,29.77
2023-02-04T21:58:29.074Z,31.63
2023-02-04T22:00:57.478Z,31.00
2023-02-04T22:03:27.414Z,37.47
2023-02-04T22:05:55.807Z,33.10
2023-02-04T22:08:24.438Z,32.17
2023-02-04T22:10:53.058Z,36.23
2023-02-04T22:13:21.830Z,32.13
2023-02-04T22:15:50.268Z,30.77
2023-02-04T22:18:21.941Z,35.27
2023-02-04T22:20:55.007Z,29.03
2023-02-04T22:23:23.624Z,30.67
2023-02-04T22:25:51.981Z,28.17
2023-02-04T22:28:20.726Z,27.03
2023-02-04T22:30:49.409Z,29.23
2023-02-04T22:33:17.985Z,29.07
2023-02-04T22:35:48.462Z,23.93
2023-02-04T22:38:20.138Z,28.17
2023-02-04T22:40:49.206Z,25.57
2023-02-04T22:43:17.659Z,29.00
2023-02-04T22:45:46.081Z,30.53
2023-02-04T22:48:14.495Z,22.30
2023-02-04T22:50:43.150Z,29.13
2023-02-04T22:53:13.968Z,27.87
2023-02-04T22:55:43.640Z,25.97
2023-02-04T22:58:12.400Z,22.20
2023-02-04T23:00:41.855Z,27.13
2023-02-04T23:03:10.486Z,30.00
2023-02-04T23:05:39.507Z,23.57
2023-02-04T23:08:08.364Z,27.83
2023-02-04T23:10:39.282Z,24.13
2023-02-04T23:13:09.874Z,25.70
2023-02-04T23:15:38.340Z,22.37
2023-02-04T23:18:07.141Z,21.80
2023-02-04T23:20:35.730Z,19.40
2023-02-04T23:23:04.810Z,25.20
2023-02-04T23:25:33.790Z,22.03
2023-02-04T23:28:02.316Z,24.93
2023-02-04T23:30:32.258Z,21.03
2023-02-04T23:33:01.112Z,22.27
2023-02-04T23:35:29.515Z,22.17
2023-02-04T23:37:58.081Z,20.87
2023-02-04T23:40:26.627Z,21.43
2023-02-04T23:42:55.193Z,22.83
2023-02-04T23:45:23.726Z,21.60
2023-02-04T23:47:53.552Z,24.13
2023-02-04T23:50:22.104Z,26.10
2023-02-04T23:52:50.546Z,21.53
2023-02-04T23:55:18.959Z,22.50
2023-02-04T23:57:49.654Z,21.07
